Time;durP1;ratioP1;P1;durP2;ratioP2;P2;SDS_P1;SDS_P2;PMS_P1;PMS_P2;Temp;Humidity;BMP_temperature;BMP_pressure;BME280_temperature;BME280_humidity;BME280_pressure;Samples;Min_cycle;Max_cycle;Signal;HPM_P1;HPM_P2
2022/06/30 00:01:01;;;;;;;3.03;2.73;;;20.40;99.90;;;;;;5054012;28;20187;-69
2022/06/30 00:03:27;;;;;;;2.40;2.20;;;20.40;99.90;;;;;;5053992;28;20168;-69
2022/06/30 00:05:52;;;;;;;2.50;2.30;;;20.30;99.90;;;;;;5035675;28;20641;-69
2022/06/30 00:08:18;;;;;;;3.63;2.30;;;20.30;99.90;;;;;;5053873;28;20244;-69
2022/06/30 00:10:43;;;;;;;2.20;2.00;;;20.30;99.90;;;;;;5053535;28;20240;-69
2022/06/30 00:13:09;;;;;;;2.43;2.23;;;20.20;99.90;;;;;;5065108;23;20219;-64
2022/06/30 00:15:37;;;;;;;2.70;2.50;;;20.20;99.90;;;;;;5032454;28;20206;-64
2022/06/30 00:18:02;;;;;;;2.40;2.20;;;20.20;99.90;;;;;;5032489;28;20411;-64
2022/06/30 00:20:28;;;;;;;2.97;2.47;;;20.20;99.90;;;;;;5032589;28;20541;-64
2022/06/30 00:22:54;;;;;;;2.70;2.50;;;20.20;99.90;;;;;;5032867;28;20187;-65
2022/06/30 00:25:19;;;;;;;3.27;2.67;;;20.20;99.90;;;;;;5032194;28;20171;-65
2022/06/30 00:27:45;;;;;;;3.00;2.27;;;20.20;99.90;;;;;;5032632;28;20175;-65
2022/06/30 00:30:11;;;;;;;2.90;2.60;;;20.20;99.90;;;;;;5032408;28;20205;-65
2022/06/30 00:32:37;;;;;;;2.60;2.40;;;20.20;99.90;;;;;;5032568;28;20191;-65
2022/06/30 00:35:03;;;;;;;2.70;2.43;;;20.10;99.90;;;;;;5032163;28;20519;-65
2022/06/30 00:37:29;;;;;;;5.10;2.53;;;20.10;99.90;;;;;;5032490;28;20168;-65
2022/06/30 00:39:54;;;;;;;2.73;2.43;;;20.10;99.90;;;;;;5032300;28;20604;-65
2022/06/30 00:42:20;;;;;;;4.63;2.47;;;20.10;99.90;;;;;;5032013;28;20201;-65
2022/06/30 00:44:45;;;;;;;3.57;2.70;;;20.00;99.90;;;;;;5031701;28;20254;-65
2022/06/30 00:47:11;;;;;;;2.27;2.07;;;20.00;99.90;;;;;;5031711;28;20275;-65
2022/06/30 00:49:37;;;;;;;3.37;2.80;;;20.00;99.90;;;;;;5031954;28;20195;-65
2022/06/30 00:52:06;;;;;;;2.87;2.67;;;20.00;99.90;;;;;;5031960;28;20245;-65
2022/06/30 00:54:33;;;;;;;2.60;2.40;;;19.90;99.90;;;;;;5031783;28;20450;-65
2022/06/30 00:57:00;;;;;;;3.20;2.80;;;19.90;99.90;;;;;;5014075;28;20414;-65
2022/06/30 00:59:28;;;;;;;3.17;2.70;;;19.90;99.90;;;;;;5031612;28;20431;-65
2022/06/30 01:01:54;;;;;;;2.77;2.57;;;19.90;99.90;;;;;;5031622;28;20415;-64
2022/06/30 01:04:20;;;;;;;2.97;2.30;;;20.00;99.90;;;;;;5031682;28;20405;-65
2022/06/30 01:06:46;;;;;;;2.70;2.50;;;20.00;99.90;;;;;;5031685;28;20605;-65
2022/06/30 01:12:41;;;;;;;3.47;2.27;;;20.00;99.90;;;;;;5014032;28;20202;-65
2022/06/30 01:14:43;;;;;;;3.17;2.97;;;20.00;99.90;;;;;;5031463;28;20823;-65
2022/06/30 01:17:10;;;;;;;2.70;2.50;;;20.00;99.90;;;;;;5031717;28;20485;-65
2022/06/30 01:19:35;;;;;;;3.67;2.90;;;20.00;99.90;;;;;;5029245;28;20175;-64
2022/06/30 01:22:02;;;;;;;3.87;3.47;;;20.00;99.90;;;;;;5031463;28;20422;-65
2022/06/30 01:24:27;;;;;;;4.80;3.57;;;20.00;99.90;;;;;;5031227;28;20233;-65
2022/06/30 01:26:57;;;;;;;4.23;3.37;;;20.00;99.90;;;;;;5031430;28;20412;-65
2022/06/30 01:29:23;;;;;;;3.00;2.70;;;20.00;99.90;;;;;;5030678;28;20491;-65
2022/06/30 01:31:49;;;;;;;4.00;3.60;;;20.00;99.90;;;;;;5031148;28;20427;-65
2022/06/30 01:34:15;;;;;;;2.83;2.57;;;20.00;99.90;;;;;;5031509;28;20904;-65
2022/06/30 01:36:42;;;;;;;2.33;2.20;;;20.00;99.90;;;;;;5031238;28;20198;-65
2022/06/30 01:39:07;;;;;;;5.30;2.97;;;20.00;99.90;;;;;;5031288;28;20537;-65
2022/06/30 01:41:33;;;;;;;2.80;2.60;;;20.00;99.90;;;;;;5031271;28;20421;-65
2022/06/30 01:43:58;;;;;;;2.80;2.60;;;20.00;99.90;;;;;;5031238;28;20172;-66
2022/06/30 01:46:24;;;;;;;4.73;2.77;;;20.00;99.90;;;;;;5030898;28;20373;-66
2022/06/30 01:48:49;;;;;;;2.67;2.47;;;20.00;99.90;;;;;;5031172;28;20531;-65
2022/06/30 01:51:15;;;;;;;2.70;2.50;;;20.00;99.90;;;;;;5031081;28;20465;-65
2022/06/30 01:53:40;;;;;;;3.20;3.00;;;20.00;99.90;;;;;;5030904;28;20787;-65
2022/06/30 01:56:06;;;;;;;2.80;2.60;;;20.00;99.90;;;;;;5030982;28;20195;-65
2022/06/30 01:58:31;;;;;;;6.90;2.73;;;20.10;99.90;;;;;;5030972;28;20212;-65
2022/06/30 02:00:57;;;;;;;3.00;2.70;;;20.10;99.90;;;;;;5030717;28;20638;-65
2022/06/30 02:03:22;;;;;;;2.63;2.43;;;20.10;99.90;;;;;;5030896;28;20526;-65
2022/06/30 02:05:48;;;;;;;4.33;2.80;;;20.00;99.90;;;;;;5030651;28;20269;-65
2022/06/30 02:08:13;;;;;;;3.87;2.77;;;20.00;99.90;;;;;;5012891;28;20596;-65
2022/06/30 02:10:39;;;;;;;3.10;2.80;;;20.00;99.90;;;;;;5030771;28;20544;-65
2022/06/30 02:13:05;;;;;;;3.17;2.90;;;20.00;99.90;;;;;;5030680;28;20280;-65
2022/06/30 02:15:34;;;;;;;4.33;3.47;;;20.00;99.90;;;;;;5030336;28;20237;-65
2022/06/30 02:18:02;;;;;;;3.30;2.87;;;20.00;99.90;;;;;;5030793;28;20629;-65
2022/06/30 02:20:28;;;;;;;4.30;3.60;;;20.00;99.90;;;;;;5030692;28;20731;-65
2022/06/30 02:22:56;;;;;;;3.50;2.90;;;20.00;99.90;;;;;;5030589;28;20505;-65
2022/06/30 02:25:24;;;;;;;3.83;2.67;;;20.00;99.90;;;;;;5030457;28;20171;-65
2022/06/30 02:27:49;;;;;;;3.00;2.80;;;19.90;99.90;;;;;;5030786;28;20409;-66
2022/06/30 02:30:15;;;;;;;3.67;3.40;;;19.90;99.90;;;;;;5030902;28;20413;-64
2022/06/30 02:32:41;;;;;;;3.43;3.07;;;19.90;99.90;;;;;;5030564;28;20235;-64
2022/06/30 02:35:07;;;;;;;3.37;2.80;;;19.90;99.90;;;;;;5030530;28;20208;-66
2022/06/30 02:37:33;;;;;;;3.40;3.10;;;19.90;99.90;;;;;;5030551;28;20199;-64
2022/06/30 02:39:58;;;;;;;3.10;2.80;;;19.90;99.90;;;;;;5030744;28;20411;-65
2022/06/30 02:42:24;;;;;;;3.57;3.03;;;19.90;99.90;;;;;;5032936;28;20559;-65
2022/06/30 02:44:50;;;;;;;3.70;3.03;;;19.90;99.90;;;;;;5034224;28;20650;-65
2022/06/30 02:47:15;;;;;;;3.20;2.87;;;19.80;99.90;;;;;;5034726;28;20178;-65
2022/06/30 02:49:41;;;;;;;3.67;3.10;;;19.80;99.90;;;;;;5034460;28;20226;-65
2022/06/30 02:52:07;;;;;;;2.80;2.60;;;19.80;99.90;;;;;;5034406;28;20280;-65
2022/06/30 02:54:33;;;;;;;3.30;3.00;;;19.80;99.90;;;;;;5034214;28;20277;-66
2022/06/30 02:56:59;;;;;;;2.90;2.70;;;19.80;99.90;;;;;;5034414;28;20413;-65
2022/06/30 02:59:24;;;;;;;3.53;3.23;;;19.80;99.90;;;;;;5034099;28;20750;-65
2022/06/30 03:01:50;;;;;;;3.13;2.80;;;19.80;99.90;;;;;;5034099;28;20201;-65
2022/06/30 03:04:16;;;;;;;4.30;4.00;;;19.80;99.90;;;;;;5034221;28;20167;-65
2022/06/30 03:06:41;;;;;;;3.10;2.80;;;19.80;99.90;;;;;;5033916;28;20169;-65
2022/06/30 03:09:07;;;;;;;3.67;3.37;;;19.90;99.90;;;;;;5034162;28;20194;-65
2022/06/30 03:11:33;;;;;;;3.63;3.33;;;19.80;99.90;;;;;;5033862;28;20305;-65
2022/06/30 03:13:59;;;;;;;3.10;2.90;;;19.80;99.90;;;;;;5033924;28;20622;-65
2022/06/30 03:16:24;;;;;;;3.07;2.67;;;19.90;99.90;;;;;;5033927;28;20469;-65
2022/06/30 03:18:52;;;;;;;5.77;2.60;;;19.90;99.90;;;;;;5033716;28;20191;-65
2022/06/30 03:21:18;;;;;;;3.10;2.80;;;20.00;99.90;;;;;;5033972;28;20278;-65
2022/06/30 03:23:43;;;;;;;3.93;3.40;;;20.10;99.90;;;;;;5033848;28;20403;-65
2022/06/30 03:26:09;;;;;;;2.90;2.10;;;20.20;99.90;;;;;;5033630;28;20814;-65
2022/06/30 03:28:34;;;;;;;6.53;2.80;;;20.30;99.90;;;;;;5033506;28;20591;-66
2022/06/30 03:31:00;;;;;;;2.13;2.03;;;20.40;99.90;;;;;;5033360;28;20628;-66
2022/06/30 03:33:26;;;;;;;5.20;2.47;;;20.40;99.90;;;;;;5033506;28;20554;-66
2022/06/30 03:35:51;;;;;;;3.50;2.60;;;20.40;99.90;;;;;;5033258;28;20675;-66
2022/06/30 03:38:17;;;;;;;2.67;2.47;;;20.50;99.90;;;;;;5033583;28;20625;-66
2022/06/30 03:40:43;;;;;;;2.80;2.60;;;20.50;99.90;;;;;;5033483;28;20200;-66
2022/06/30 03:43:09;;;;;;;3.07;2.13;;;20.50;99.90;;;;;;5033383;28;20561;-66
2022/06/30 03:45:35;;;;;;;2.80;2.60;;;20.50;99.90;;;;;;5033119;28;20221;-66
2022/06/30 03:48:01;;;;;;;2.63;2.40;;;20.50;99.90;;;;;;5033627;28;20919;-66
2022/06/30 03:50:27;;;;;;;4.40;2.20;;;20.50;99.90;;;;;;5033201;28;20417;-66
2022/06/30 03:52:53;;;;;;;3.33;2.60;;;20.50;99.90;;;;;;5032884;28;20425;-66
2022/06/30 03:55:19;;;;;;;4.33;3.40;;;20.50;99.90;;;;;;5032897;28;20454;-66
2022/06/30 03:57:45;;;;;;;3.07;2.77;;;20.50;99.90;;;;;;5033007;28;20202;-66
2022/06/30 04:00:12;;;;;;;3.13;2.50;;;20.50;99.90;;;;;;5033073;28;20416;-66
2022/06/30 04:02:37;;;;;;;4.90;3.10;;;20.60;99.90;;;;;;5032795;28;20445;-66
2022/06/30 04:05:04;;;;;;;3.03;2.83;;;20.60;99.90;;;;;;5032808;28;20411;-66
2022/06/30 04:07:29;;;;;;;4.03;2.23;;;20.50;99.90;;;;;;5032921;28;20173;-66
2022/06/30 04:09:54;;;;;;;3.33;2.70;;;20.50;99.90;;;;;;5032989;28;20789;-66
2022/06/30 04:12:20;;;;;;;2.77;2.40;;;20.50;99.90;;;;;;5032650;28;20966;-65
2022/06/30 04:14:46;;;;;;;3.40;2.33;;;20.50;99.90;;;;;;5032728;28;20227;-65
2022/06/30 04:17:11;;;;;;;3.53;3.20;;;20.50;99.90;;;;;;5032910;28;20581;-65
2022/06/30 04:19:37;;;;;;;2.90;2.60;;;20.60;99.90;;;;;;5032788;28;20204;-65
2022/06/30 04:22:04;;;;;;;3.37;3.10;;;20.70;99.90;;;;;;5032649;28;20196;-65
2022/06/30 04:24:29;;;;;;;3.50;2.67;;;20.70;99.90;;;;;;5032597;28;20408;-65
2022/06/30 04:26:55;;;;;;;3.03;2.80;;;20.60;99.90;;;;;;5032647;28;20394;-65
2022/06/30 04:29:20;;;;;;;2.50;2.40;;;20.70;99.90;;;;;;5032637;28;20177;-65
2022/06/30 04:34:30;;;;;;;3.43;2.83;;;20.80;99.90;;;;;;5032506;28;20228;-65
2022/06/30 04:36:56;;;;;;;4.43;3.20;;;20.80;99.90;;;;;;5032442;28;20411;-66
2022/06/30 04:39:21;;;;;;;2.33;2.13;;;20.80;99.90;;;;;;5032479;28;20190;-66
2022/06/30 04:41:47;;;;;;;2.60;2.40;;;20.80;99.90;;;;;;5032585;28;20192;-66
2022/06/30 04:44:13;;;;;;;2.97;2.70;;;21.20;99.90;;;;;;5032231;28;20165;-65
2022/06/30 04:46:38;;;;;;;2.77;2.50;;;21.30;99.90;;;;;;5032162;28;20515;-66
2022/06/30 04:49:04;;;;;;;2.87;2.67;;;21.30;99.90;;;;;;5032132;28;20174;-65
2022/06/30 04:51:29;;;;;;;3.13;2.83;;;21.10;99.90;;;;;;5032165;28;20684;-66
2022/06/30 04:53:55;;;;;;;2.90;2.70;;;21.20;99.90;;;;;;5031923;28;20174;-66
2022/06/30 04:56:21;;;;;;;5.13;3.07;;;21.10;99.90;;;;;;5031716;28;20201;-65
2022/06/30 04:58:47;;;;;;;4.60;3.23;;;21.10;99.90;;;;;;5031975;28;20486;-66
2022/06/30 05:01:12;;;;;;;3.67;3.37;;;21.10;99.90;;;;;;5031769;28;20179;-65
2022/06/30 05:03:38;;;;;;;4.00;3.60;;;21.00;99.90;;;;;;5031296;28;20180;-65
2022/06/30 05:06:05;;;;;;;3.67;3.37;;;20.90;99.90;;;;;;5031230;28;20176;-65
2022/06/30 05:08:31;;;;;;;3.23;2.70;;;21.00;99.90;;;;;;5031685;28;20169;-65
2022/06/30 05:10:57;;;;;;;3.70;2.50;;;21.00;99.90;;;;;;5031651;28;20431;-65
2022/06/30 05:13:22;;;;;;;3.20;2.80;;;21.00;99.90;;;;;;5031530;28;20464;-65
2022/06/30 05:15:48;;;;;;;3.50;3.20;;;21.00;99.90;;;;;;5031193;28;20814;-65
2022/06/30 05:18:14;;;;;;;3.10;2.90;;;20.90;99.90;;;;;;5031866;28;20544;-65
2022/06/30 05:20:41;;;;;;;3.10;2.90;;;21.00;99.90;;;;;;5033588;28;20252;-65
2022/06/30 05:23:08;;;;;;;3.27;2.93;;;21.00;99.90;;;;;;5031442;28;20968;-66
2022/06/30 05:28:18;;;;;;;4.83;3.10;;;21.10;99.90;;;;;;5031776;28;20465;-66
2022/06/30 05:30:43;;;;;;;2.60;2.40;;;21.30;99.90;;;;;;5031591;28;20405;-66
2022/06/30 05:33:09;;;;;;;3.80;2.33;;;21.60;99.90;;;;;;5031641;28;20193;-66
2022/06/30 05:35:35;;;;;;;3.53;2.73;;;22.00;99.90;;;;;;5031444;28;20795;-65
2022/06/30 05:38:01;;;;;;;3.00;2.70;;;22.40;99.90;;;;;;5031453;28;20697;-65
2022/06/30 05:40:27;;;;;;;3.33;3.03;;;23.00;99.90;;;;;;5031276;28;20167;-65
2022/06/30 05:42:53;;;;;;;2.83;2.60;;;23.50;99.90;;;;;;5031551;28;20191;-65
2022/06/30 05:45:19;;;;;;;5.00;2.70;;;23.70;99.90;;;;;;5030865;28;20414;-65
2022/06/30 05:47:50;;;;;;;3.23;2.53;;;23.90;99.90;;;;;;5030775;28;20168;-65
2022/06/30 05:50:19;;;;;;;2.90;2.40;;;24.10;99.90;;;;;;5030923;28;20414;-65
2022/06/30 05:52:46;;;;;;;3.37;2.17;;;24.50;99.90;;;;;;5031107;28;20428;-65
2022/06/30 05:55:12;;;;;;;3.37;3.07;;;24.50;99.90;;;;;;5030920;28;20485;-65
2022/06/30 05:57:56;;;;;;;2.40;2.20;;;24.60;99.90;;;;;;5031143;28;20739;-65
2022/06/30 06:00:25;;;;;;;2.57;2.37;;;24.50;99.90;;;;;;5030718;28;20405;-65
2022/06/30 06:02:51;;;;;;;2.63;2.43;;;24.90;99.90;;;;;;5030489;28;20937;-64
2022/06/30 06:05:17;;;;;;;2.57;2.03;;;25.20;99.90;;;;;;5030773;28;20405;-65
2022/06/30 06:07:42;;;;;;;2.50;2.20;;;25.30;99.90;;;;;;5030827;28;20408;-65
2022/06/30 06:10:09;;;;;;;3.40;3.10;;;24.90;99.90;;;;;;5030884;28;20249;-65
2022/06/30 06:12:35;;;;;;;3.67;2.90;;;24.30;99.90;;;;;;5054143;22;20629;-69
2022/06/30 06:15:01;;;;;;;2.80;2.60;;;24.10;99.90;;;;;;5050369;28;20482;-71
2022/06/30 06:17:29;;;;;;;2.50;2.30;;;24.60;99.90;;;;;;5051469;28;20627;-68
2022/06/30 06:19:54;;;;;;;2.87;2.63;;;24.00;99.90;;;;;;5051579;28;20166;-70
2022/06/30 06:22:20;;;;;;;3.23;2.70;;;23.70;99.90;;;;;;5051970;28;20436;-69
2022/06/30 06:24:45;;;;;;;5.10;3.00;;;23.30;99.90;;;;;;5051494;28;20177;-70
2022/06/30 06:27:11;;;;;;;3.17;2.97;;;23.20;99.90;;;;;;5051710;28;20258;-70
2022/06/30 06:29:36;;;;;;;3.47;3.03;;;23.10;99.90;;;;;;5051464;28;20205;-70
2022/06/30 06:32:02;;;;;;;2.70;2.50;;;22.80;99.90;;;;;;5051277;28;20186;-69
2022/06/30 06:34:28;;;;;;;4.10;2.80;;;22.70;99.90;;;;;;5051437;28;20168;-70
2022/06/30 06:36:53;;;;;;;3.47;3.20;;;22.60;99.90;;;;;;5051344;28;20243;-70
2022/06/30 06:39:19;;;;;;;6.97;3.37;;;22.60;99.90;;;;;;5051753;28;20314;-70
2022/06/30 06:41:44;;;;;;;2.93;2.53;;;22.70;99.90;;;;;;5051878;28;20193;-70
2022/06/30 06:44:11;;;;;;;5.57;3.47;;;22.70;99.90;;;;;;5033336;28;20698;-68
2022/06/30 06:46:37;;;;;;;4.97;3.07;;;22.70;99.90;;;;;;5033808;28;20205;-69
2022/06/30 06:49:05;;;;;;;3.57;3.33;;;22.70;99.90;;;;;;5051284;28;20510;-69
2022/06/30 06:51:31;;;;;;;11.13;3.47;;;22.70;99.90;;;;;;5051103;28;20181;-70
2022/06/30 06:53:57;;;;;;;3.23;2.93;;;22.70;99.90;;;;;;5051212;28;20415;-70
2022/06/30 06:56:23;;;;;;;4.60;2.80;;;22.80;99.90;;;;;;5051006;28;20214;-69
2022/06/30 06:58:48;;;;;;;2.93;2.73;;;23.00;99.90;;;;;;5051287;28;20202;-70
2022/06/30 07:01:14;;;;;;;3.70;3.40;;;22.90;99.90;;;;;;5051420;28;20498;-70
2022/06/30 07:03:40;;;;;;;4.37;3.97;;;22.90;99.90;;;;;;5051619;28;20612;-70
2022/06/30 07:06:06;;;;;;;4.60;4.17;;;22.80;99.90;;;;;;5051100;28;20441;-69
2022/06/30 07:08:32;;;;;;;4.53;4.13;;;22.70;99.90;;;;;;5051230;28;20250;-69
2022/06/30 07:10:59;;;;;;;4.33;3.67;;;22.50;99.90;;;;;;5050923;28;20856;-69
2022/06/30 07:13:25;;;;;;;3.57;3.27;;;22.30;99.90;;;;;;5050866;28;20209;-70
2022/06/30 07:15:51;;;;;;;5.07;3.53;;;22.40;99.90;;;;;;5050644;28;20455;-70
2022/06/30 07:18:17;;;;;;;4.10;3.60;;;22.30;99.90;;;;;;5051224;28;20476;-69
2022/06/30 07:20:42;;;;;;;5.80;3.93;;;22.20;99.90;;;;;;5051266;28;20176;-70
2022/06/30 07:23:08;;;;;;;3.97;3.50;;;22.30;99.90;;;;;;5033184;28;20687;-70
2022/06/30 07:25:34;;;;;;;3.90;3.60;;;22.30;99.90;;;;;;5050902;28;20171;-70
2022/06/30 07:28:00;;;;;;;5.43;5.03;;;22.30;99.90;;;;;;5052609;28;20520;-69
2022/06/30 07:30:26;;;;;;;5.43;4.23;;;22.40;99.90;;;;;;5054608;28;20419;-70
2022/06/30 07:32:52;;;;;;;4.10;3.80;;;22.40;99.90;;;;;;5054469;28;20449;-70
2022/06/30 07:35:18;;;;;;;5.40;4.20;;;22.80;99.90;;;;;;5054881;28;20195;-70
2022/06/30 07:37:43;;;;;;;4.87;4.23;;;23.10;99.90;;;;;;5055554;28;20410;-69
2022/06/30 07:40:10;;;;;;;7.10;3.80;;;23.50;99.90;;;;;;5055146;28;20397;-69
2022/06/30 07:42:35;;;;;;;4.17;3.73;;;23.40;99.90;;;;;;5055034;28;20186;-71
2022/06/30 07:45:03;;;;;;;4.03;3.67;;;23.80;99.90;;;;;;5055491;28;20417;-70
2022/06/30 07:47:28;;;;;;;3.30;3.00;;;23.60;99.90;;;;;;5055970;28;20176;-70
2022/06/30 07:49:54;;;;;;;4.33;3.77;;;23.80;99.90;;;;;;5054573;28;20864;-69
2022/06/30 07:52:19;;;;;;;4.93;4.00;;;23.50;99.90;;;;;;5054260;28;20196;-69
2022/06/30 07:54:45;;;;;;;3.97;3.57;;;23.70;99.90;;;;;;5036279;28;20196;-70
2022/06/30 07:57:12;;;;;;;4.07;3.23;;;23.70;99.90;;;;;;5036360;28;20636;-70
2022/06/30 07:59:38;;;;;;;7.20;4.83;;;23.80;99.90;;;;;;5054091;28;20171;-69
2022/06/30 08:02:05;;;;;;;4.80;4.40;;;23.80;99.90;;;;;;5054003;28;20414;-69
2022/06/30 08:04:30;;;;;;;4.07;3.77;;;24.00;99.90;;;;;;5053888;28;20886;-69
2022/06/30 08:06:56;;;;;;;6.03;3.90;;;23.90;99.90;;;;;;5053878;28;20487;-69
2022/06/30 08:09:22;;;;;;;4.20;3.90;;;23.60;99.90;;;;;;5053529;28;20220;-69
2022/06/30 08:11:47;;;;;;;4.07;3.77;;;23.80;99.90;;;;;;5053421;28;20242;-68
2022/06/30 08:14:13;;;;;;;4.80;4.13;;;24.10;99.90;;;;;;5053455;28;20260;-69
2022/06/30 08:16:38;;;;;;;4.07;3.60;;;24.20;99.90;;;;;;5053399;28;20197;-70
2022/06/30 08:19:04;;;;;;;4.27;3.67;;;24.50;99.90;;;;;;5053772;28;20173;-70
2022/06/30 08:21:30;;;;;;;4.20;3.77;;;25.10;99.90;;;;;;5053474;28;20211;-69
2022/06/30 08:23:56;;;;;;;4.23;3.80;;;25.50;99.90;;;;;;5053386;28;20178;-68
2022/06/30 08:26:24;;;;;;;5.03;4.47;;;26.30;99.90;;;;;;5053211;28;20420;-69
2022/06/30 08:28:49;;;;;;;4.30;3.90;;;25.50;99.90;;;;;;5053720;28;20791;-70
2022/06/30 08:31:16;;;;;;;5.83;3.87;;;26.20;99.90;;;;;;5053481;28;20504;-70
2022/06/30 08:33:41;;;;;;;4.50;4.07;;;26.20;99.90;;;;;;5053467;28;20174;-70
2022/06/30 08:36:08;;;;;;;3.53;3.23;;;26.40;99.90;;;;;;5053273;28;20449;-69
2022/06/30 08:38:34;;;;;;;4.57;3.57;;;26.90;99.90;;;;;;5053295;28;20598;-69
2022/06/30 08:43:45;;;;;;;4.07;3.43;;;26.50;99.90;;;;;;5053586;28;20818;-70
2022/06/30 08:46:12;;;;;;;3.90;2.53;;;27.70;99.90;;;;;;5053388;28;20493;-69
2022/06/30 08:48:38;;;;;;;4.27;3.97;;;28.40;99.90;;;;;;5053160;28;20973;-69
2022/06/30 08:51:06;;;;;;;3.33;3.13;;;27.90;99.90;;;;;;5052843;28;20406;-69
2022/06/30 08:53:38;;;;;;;4.20;3.80;;;28.00;99.90;;;;;;5052798;28;20221;-70
2022/06/30 08:56:05;;;;;;;3.30;3.10;;;27.70;99.90;;;;;;5052924;28;20465;-69
2022/06/30 08:58:31;;;;;;;3.83;3.53;;;27.70;99.90;;;;;;5052820;28;20394;-69
2022/06/30 09:00:57;;;;;;;6.30;4.33;;;27.50;99.90;;;;;;5053281;28;20409;-68
2022/06/30 09:03:23;;;;;;;3.80;3.50;;;27.20;99.90;;;;;;5052972;28;20981;-69
2022/06/30 09:05:48;;;;;;;4.83;4.43;;;26.60;99.90;;;;;;5052642;28;20586;-69
2022/06/30 09:08:17;;;;;;;5.00;3.93;;;26.40;99.90;;;;;;5052437;28;20167;-70
2022/06/30 09:10:53;;;;;;;3.43;3.20;;;26.30;99.90;;;;;;5052885;28;20170;-70
2022/06/30 09:13:20;;;;;;;5.73;3.70;;;25.90;99.90;;;;;;5052486;28;20442;-69
2022/06/30 09:15:47;;;;;;;3.83;3.53;;;25.70;99.90;;;;;;5052358;28;20994;-69
2022/06/30 09:18:27;;;;;;;6.00;4.07;;;25.40;99.90;;;;;;5052997;28;20440;-70
2022/06/30 09:20:53;;;;;;;4.50;4.10;;;26.10;99.90;;;;;;5052496;28;20407;-69
2022/06/30 09:23:25;;;;;;;3.63;3.33;;;26.90;99.90;;;;;;5052422;28;20421;-70
2022/06/30 09:25:53;;;;;;;3.90;3.50;;;27.60;99.90;;;;;;5052234;28;20432;-69
2022/06/30 09:28:40;;;;;;;4.20;3.80;;;28.40;99.90;;;;;;5052202;28;20416;-69
2022/06/30 09:31:06;;;;;;;7.13;4.13;;;27.60;99.90;;;;;;5051996;28;20949;-69
2022/06/30 09:33:36;;;;;;;4.43;3.70;;;28.20;99.90;;;;;;5052106;28;20456;-69
2022/06/30 09:36:29;;;;;;;4.00;3.70;;;28.30;99.90;;;;;;5051845;28;20194;-69
2022/06/30 09:39:14;;;;;;;4.43;4.03;;;28.40;99.90;;;;;;5052403;28;20448;-69
2022/06/30 09:41:41;;;;;;;4.03;3.67;;;27.20;99.90;;;;;;5051819;28;20463;-69
2022/06/30 09:44:18;;;;;;;4.10;3.17;;;28.10;99.90;;;;;;5052252;28;20410;-70
2022/06/30 09:46:57;;;;;;;3.90;3.60;;;28.20;99.90;;;;;;5051986;28;20404;-70
2022/06/30 09:49:30;;;;;;;6.63;3.47;;;26.70;99.90;;;;;;5051941;28;20743;-69
2022/06/30 09:51:56;;;;;;;3.37;3.07;;;26.10;99.90;;;;;;5051235;28;20433;-70
2022/06/30 09:54:22;;;;;;;3.70;3.40;;;26.30;99.90;;;;;;5052124;28;20397;-69
2022/06/30 09:57:07;;;;;;;4.30;3.90;;;27.20;99.90;;;;;;5033839;28;20207;-69
2022/06/30 09:59:34;;;;;;;6.43;4.63;;;27.80;99.90;;;;;;5052125;28;20254;-69
2022/06/30 10:02:00;;;;;;;6.23;5.63;;;27.90;99.90;;;;;;5033715;28;20460;-69
2022/06/30 10:04:26;;;;;;;4.27;3.80;;;27.40;99.90;;;;;;5051554;28;20946;-69
2022/06/30 10:06:53;;;;;;;3.50;3.20;;;26.70;99.90;;;;;;5051561;28;20167;-68
2022/06/30 10:09:19;;;;;;;4.70;4.07;;;26.30;99.90;;;;;;5051702;28;20799;-68
2022/06/30 10:11:47;;;;;;;4.13;3.83;;;26.20;99.90;;;;;;5051390;28;20577;-70
2022/06/30 10:14:16;;;;;;;3.80;3.50;;;26.20;99.90;;;;;;5051799;28;20870;-68
2022/06/30 10:16:42;;;;;;;3.60;3.30;;;26.70;99.90;;;;;;5051350;28;20456;-69
2022/06/30 10:19:09;;;;;;;3.80;3.50;;;26.90;99.90;;;;;;5051562;28;21004;-68
2022/06/30 10:21:37;;;;;;;3.97;3.67;;;26.20;99.90;;;;;;5051378;28;20488;-68
2022/06/30 10:24:06;;;;;;;4.30;4.00;;;26.60;99.90;;;;;;5051906;28;20401;-68
2022/06/30 10:29:18;;;;;;;4.57;4.27;;;26.90;99.90;;;;;;5051739;28;20412;-69
2022/06/30 10:31:51;;;;;;;4.77;4.37;;;27.20;99.90;;;;;;5051248;28;20428;-68
2022/06/30 10:34:24;;;;;;;4.50;3.93;;;27.40;99.90;;;;;;5051598;28;20400;-69
2022/06/30 10:37:26;;;;;;;4.77;4.37;;;27.30;99.90;;;;;;5051381;28;20452;-69
2022/06/30 10:39:58;;;;;;;5.40;4.80;;;26.80;99.90;;;;;;5051438;28;20446;-69
2022/06/30 10:42:47;;;;;;;4.60;4.20;;;26.70;99.90;;;;;;5051404;28;20849;-69
2022/06/30 10:45:31;;;;;;;4.43;3.93;;;26.10;99.90;;;;;;5051165;28;20432;-69
2022/06/30 10:47:57;;;;;;;5.23;4.83;;;26.50;99.90;;;;;;5051286;28;20783;-68
2022/06/30 10:50:43;;;;;;;5.27;4.77;;;26.60;99.90;;;;;;5051075;28;20793;-68
2022/06/30 10:53:14;;;;;;;4.47;4.07;;;26.60;99.90;;;;;;5051439;28;20481;-70
2022/06/30 10:55:54;;;;;;;5.10;4.60;;;26.70;99.90;;;;;;5051103;28;20867;-70
2022/06/30 10:58:21;;;;;;;5.03;4.50;;;26.60;99.90;;;;;;5051322;28;20446;-69
2022/06/30 11:00:47;;;;;;;6.27;5.50;;;26.90;99.90;;;;;;5051000;28;20450;-70
2022/06/30 11:03:33;;;;;;;6.37;4.70;;;26.50;99.90;;;;;;5053174;28;20419;-68
2022/06/30 11:06:05;;;;;;;5.20;4.70;;;26.50;99.90;;;;;;5054731;28;20651;-69
2022/06/30 11:08:46;;;;;;;4.90;4.50;;;26.70;99.90;;;;;;5054978;28;20469;-69
2022/06/30 11:11:41;;;;;;;5.70;5.20;;;26.30;99.90;;;;;;5054959;28;20438;-69
2022/06/30 11:14:07;;;;;;;5.30;4.60;;;26.60;99.90;;;;;;5052159;28;20428;-68
2022/06/30 11:16:38;;;;;;;6.03;5.30;;;26.90;99.90;;;;;;5054775;28;20463;-69
2022/06/30 11:19:12;;;;;;;5.20;4.70;;;26.70;99.90;;;;;;5054762;28;20903;-69
2022/06/30 11:21:42;;;;;;;5.33;4.80;;;26.40;99.90;;;;;;5054809;28;20450;-69
2022/06/30 11:24:10;;;;;;;5.27;4.77;;;26.30;99.90;;;;;;5055080;28;20925;-70
2022/06/30 11:29:23;;;;;;;5.57;4.63;;;26.50;99.90;;;;;;5055258;28;20428;-70
2022/06/30 11:31:50;;;;;;;5.93;5.13;;;26.50;99.90;;;;;;5054305;28;20438;-70
2022/06/30 11:34:18;;;;;;;6.13;5.50;;;26.30;99.90;;;;;;5054744;28;20516;-70
2022/06/30 11:36:44;;;;;;;5.53;5.03;;;26.30;99.90;;;;;;5054305;28;20445;-69
2022/06/30 11:39:17;;;;;;;6.67;5.93;;;26.30;99.90;;;;;;5054508;28;20401;-70
2022/06/30 11:41:57;;;;;;;5.70;5.10;;;26.30;99.90;;;;;;5054397;28;20433;-69
2022/06/30 11:44:29;;;;;;;5.50;5.00;;;26.60;99.90;;;;;;5054084;28;20455;-70
2022/06/30 11:47:02;;;;;;;4.50;4.10;;;26.80;99.90;;;;;;5054249;28;20405;-70
2022/06/30 11:49:48;;;;;;;5.70;5.10;;;26.70;99.90;;;;;;5054609;28;20411;-70
2022/06/30 11:52:22;;;;;;;6.17;5.63;;;26.80;99.90;;;;;;5053683;28;20921;-69
2022/06/30 11:54:56;;;;;;;5.03;4.53;;;26.90;99.90;;;;;;5053729;28;20400;-69
2022/06/30 11:57:24;;;;;;;5.53;4.17;;;26.70;99.90;;;;;;5054302;28;20400;-69
2022/06/30 11:59:55;;;;;;;5.87;5.17;;;26.40;99.90;;;;;;5053996;28;20830;-69
2022/06/30 12:02:21;;;;;;;5.20;4.70;;;26.50;99.90;;;;;;5054052;28;20768;-70
2022/06/30 12:04:51;;;;;;;5.40;4.90;;;26.30;99.90;;;;;;5053819;28;20434;-70
2022/06/30 12:07:18;;;;;;;5.47;4.97;;;26.60;99.90;;;;;;5054119;28;20170;-69
2022/06/30 12:09:45;;;;;;;8.00;5.60;;;26.50;99.90;;;;;;5053999;28;20496;-69
2022/06/30 12:12:12;;;;;;;5.70;5.20;;;26.40;99.90;;;;;;5054145;28;20534;-70
2022/06/30 12:14:39;;;;;;;5.30;4.80;;;26.30;99.90;;;;;;5053115;28;20410;-69
2022/06/30 12:17:10;;;;;;;5.87;5.27;;;26.10;99.90;;;;;;5053761;28;20738;-69
2022/06/30 12:19:35;;;;;;;6.60;5.07;;;26.50;99.90;;;;;;5053871;28;20396;-69
2022/06/30 12:22:03;;;;;;;5.43;4.60;;;26.70;99.90;;;;;;5053426;28;20743;-69
2022/06/30 12:24:29;;;;;;;5.57;4.67;;;27.00;99.90;;;;;;5053572;28;20585;-69
2022/06/30 12:26:58;;;;;;;8.30;6.00;;;26.40;99.90;;;;;;5053787;28;20411;-68
2022/06/30 12:29:26;;;;;;;6.00;5.40;;;26.30;99.90;;;;;;5053442;28;20419;-70
2022/06/30 12:32:10;;;;;;;5.97;4.80;;;26.40;99.90;;;;;;5053233;28;20428;-69
2022/06/30 12:34:54;;;;;;;5.70;5.20;;;26.50;99.90;;;;;;5053533;28;20402;-69
2022/06/30 12:37:30;;;;;;;5.77;5.27;;;26.90;99.90;;;;;;5053536;28;20475;-70
2022/06/30 12:39:57;;;;;;;6.03;5.37;;;27.40;99.90;;;;;;5053737;28;20405;-70
2022/06/30 12:42:24;;;;;;;6.33;5.70;;;26.80;99.90;;;;;;5053427;28;20428;-70
2022/06/30 12:44:49;;;;;;;6.70;5.83;;;26.90;99.90;;;;;;5053093;28;20461;-69
2022/06/30 12:47:15;;;;;;;5.87;5.33;;;26.80;99.90;;;;;;5053848;28;20411;-70
2022/06/30 12:49:41;;;;;;;7.13;6.50;;;26.80;99.90;;;;;;5053539;28;20568;-69
2022/06/30 12:52:15;;;;;;;8.90;5.40;;;27.00;99.90;;;;;;5054162;28;20272;-70
2022/06/30 12:54:58;;;;;;;5.57;5.10;;;26.80;99.90;;;;;;5053936;28;20742;-71
2022/06/30 12:57:27;;;;;;;5.20;4.80;;;26.90;99.90;;;;;;5054289;28;20418;-69
2022/06/30 12:59:55;;;;;;;5.77;5.20;;;27.10;99.90;;;;;;5054799;28;20990;-69
2022/06/30 13:02:34;;;;;;;5.10;4.70;;;27.40;99.90;;;;;;5053137;28;20432;-69
2022/06/30 13:04:59;;;;;;;5.93;5.43;;;27.30;99.90;;;;;;5052820;28;20427;-69
2022/06/30 13:07:25;;;;;;;6.67;6.07;;;27.60;99.90;;;;;;5052670;28;20498;-70